Time;durP1;ratioP1;P1;durP2;ratioP2;P2;SDS_P1;SDS_P2;PMS_P1;PMS_P2;Temp;Humidity;BMP_temperature;BMP_pressure;BME280_temperature;BME280_humidity;BME280_pressure;Samples;Min_cycle;Max_cycle;Signal;HPM_P1;HPM_P2
2022/07/26 00:02:13;;;;;;;8.35;2.55;;;;;;;17.41;71.51;101246.72;5030032;28;20049;-66
2022/07/26 00:04:39;;;;;;;5.40;2.55;;;;;;;17.41;71.71;101234.84;5029952;28;20033;-66
2022/07/26 00:07:04;;;;;;;8.13;2.15;;;;;;;17.41;71.55;101240.34;5030330;28;20029;-66
2022/07/26 00:09:29;;;;;;;5.10;1.88;;;;;;;17.41;71.32;101241.22;5030174;28;20087;-66
2022/07/26 00:11:55;;;;;;;6.40;2.58;;;;;;;17.39;71.60;101240.47;5031607;28;20524;-66
2022/07/26 00:14:20;;;;;;;5.63;1.90;;;;;;;17.41;71.67;101243.97;5034291;28;20030;-66
2022/07/26 00:16:46;;;;;;;4.68;1.95;;;;;;;17.44;71.72;101242.78;5029278;28;20048;-66
2022/07/26 00:19:12;;;;;;;10.25;2.55;;;;;;;17.42;71.82;101244.84;5030230;28;20041;-66
2022/07/26 00:21:37;;;;;;;7.53;2.28;;;;;;;17.39;71.78;101243.22;5044385;28;20046;-66
2022/07/26 00:24:03;;;;;;;10.85;2.05;;;;;;;17.37;71.81;101242.53;5032870;28;20048;-67
2022/07/26 00:26:29;;;;;;;8.43;2.35;;;;;;;17.36;72.09;101242.69;5031103;28;20041;-66
2022/07/26 00:28:54;;;;;;;4.75;2.30;;;;;;;17.33;72.17;101238.31;5043898;28;20072;-65
2022/07/26 00:31:20;;;;;;;8.93;2.13;;;;;;;17.32;72.03;101242.09;5027253;28;20024;-65
2022/07/26 00:33:45;;;;;;;4.80;2.05;;;;;;;17.32;72.37;101250.34;5027909;28;20046;-65
2022/07/26 00:36:11;;;;;;;11.57;2.50;;;;;;;17.31;71.98;101251.38;5026213;28;20040;-64
2022/07/26 00:38:37;;;;;;;5.15;2.30;;;;;;;17.34;71.88;101259.31;5042912;28;20030;-65
2022/07/26 00:41:03;;;;;;;8.68;2.15;;;;;;;17.34;72.27;101262.06;5027260;28;20515;-65
2022/07/26 00:43:28;;;;;;;6.85;2.60;;;;;;;17.34;72.78;101259.31;5042489;28;20025;-65
2022/07/26 00:45:53;;;;;;;6.97;2.22;;;;;;;17.36;71.92;101256.44;5034679;28;20148;-65
2022/07/26 00:48:19;;;;;;;4.88;2.17;;;;;;;17.38;71.59;101260.75;5031387;28;20021;-66
2022/07/26 00:50:44;;;;;;;10.77;2.45;;;;;;;17.38;72.38;101257.13;5034970;28;20120;-65
2022/07/26 00:53:10;;;;;;;5.18;2.10;;;;;;;17.41;71.89;101256.84;5027668;28;20055;-65
2022/07/26 00:55:35;;;;;;;8.55;2.42;;;;;;;17.39;72.50;101254.22;5027392;28;20084;-66
2022/07/26 00:58:01;;;;;;;9.00;2.35;;;;;;;17.39;72.06;101258.88;5027343;28;20021;-65
2022/07/26 01:00:27;;;;;;;6.53;2.00;;;;;;;17.40;72.10;101256.00;5036249;28;20040;-65
2022/07/26 01:02:54;;;;;;;7.70;2.15;;;;;;;17.37;72.82;101249.91;5027342;28;20040;-64
2022/07/26 01:05:21;;;;;;;7.38;1.77;;;;;;;17.36;72.51;101250.94;5027026;28;20120;-65
2022/07/26 01:07:48;;;;;;;6.82;2.08;;;;;;;17.32;72.80;101240.19;5026947;28;20033;-64
2022/07/26 01:10:14;;;;;;;7.28;2.50;;;;;;;17.31;73.14;101245.88;5025844;28;20493;-66
2022/07/26 01:12:43;;;;;;;9.25;2.25;;;;;;;17.32;72.39;101250.34;5034939;28;20052;-66
2022/07/26 01:15:10;;;;;;;7.32;2.55;;;;;;;17.28;73.36;101252.50;5040235;28;20043;-65
2022/07/26 01:17:38;;;;;;;7.00;2.28;;;;;;;17.30;72.29;101247.75;5026304;28;20069;-65
2022/07/26 01:20:06;;;;;;;6.53;2.30;;;;;;;17.33;72.49;101243.81;5026038;28;20043;-66
2022/07/26 01:22:32;;;;;;;7.25;2.22;;;;;;;17.33;72.96;101243.81;5026458;28;20456;-65
2022/07/26 01:24:57;;;;;;;11.45;2.25;;;;;;;17.31;73.32;101234.88;5026840;28;20124;-66
2022/07/26 01:27:23;;;;;;;7.80;3.08;;;;;;;17.33;72.94;101236.44;5027166;28;20111;-67
2022/07/26 01:29:50;;;;;;;11.55;2.70;;;;;;;17.33;73.51;101232.81;5026003;28;20041;-66
2022/07/26 01:32:16;;;;;;;6.57;2.40;;;;;;;17.31;73.58;101230.22;5026521;28;20500;-67
2022/07/26 01:34:42;;;;;;;8.63;2.30;;;;;;;17.33;73.56;101228.19;5025809;28;20105;-65
2022/07/26 01:37:08;;;;;;;8.75;2.85;;;;;;;17.26;73.85;101221.53;5026040;28;20520;-66
2022/07/26 01:39:33;;;;;;;6.53;2.92;;;;;;;17.30;73.93;101230.38;5026478;28;20110;-66
2022/07/26 01:41:58;;;;;;;5.38;1.90;;;;;;;17.28;74.13;101230.50;5028662;28;20108;-65
2022/07/26 01:44:24;;;;;;;13.18;2.55;;;;;;;17.28;74.21;101237.88;5046448;28;20090;-68
2022/07/26 01:46:49;;;;;;;8.05;3.10;;;;;;;17.26;74.75;101239.94;5025869;28;20072;-66
2022/07/26 01:49:15;;;;;;;10.75;2.63;;;;;;;17.24;75.08;101242.81;5040938;28;20045;-66
2022/07/26 01:51:40;;;;;;;9.02;2.55;;;;;;;17.25;74.38;101243.66;5025554;28;20916;-67
2022/07/26 01:54:05;;;;;;;8.27;2.45;;;;;;;17.23;75.86;101243.81;5026579;28;20120;-66
2022/07/26 01:56:31;;;;;;;8.70;2.67;;;;;;;17.24;74.55;101241.94;5025948;28;20117;-65
2022/07/26 01:58:56;;;;;;;9.88;2.85;;;;;;;17.27;75.02;101253.53;5026333;28;20029;-65
2022/07/26 02:01:22;;;;;;;9.52;3.25;;;;;;;17.23;76.20;101252.06;5025931;28;20033;-65
2022/07/26 02:03:47;;;;;;;14.48;3.38;;;;;;;17.25;74.70;101250.06;5026335;28;20095;-67
2022/07/26 02:06:13;;;;;;;12.20;3.42;;;;;;;17.25;75.31;101255.56;5024570;28;20071;-66
2022/07/26 02:08:38;;;;;;;5.55;2.53;;;;;;;17.26;75.08;101250.94;5026300;28;20034;-64
2022/07/26 02:11:04;;;;;;;12.95;2.92;;;;;;;17.29;74.47;101261.63;5025143;28;20029;-65
2022/07/26 02:13:32;;;;;;;11.98;3.70;;;;;;;17.28;76.27;101251.63;5040736;28;20031;-66
2022/07/26 02:15:58;;;;;;;13.80;3.10;;;;;;;17.27;76.11;101250.78;5033434;28;20088;-64
2022/07/26 02:18:25;;;;;;;8.70;3.25;;;;;;;17.27;75.50;101249.91;5037197;28;20448;-66
2022/07/26 02:20:51;;;;;;;10.80;3.05;;;;;;;17.28;75.67;101248.88;5027583;28;20590;-66
2022/07/26 02:23:16;;;;;;;12.15;3.15;;;;;;;17.26;76.44;101249.03;5046079;28;20048;-65
2022/07/26 02:25:41;;;;;;;11.75;3.45;;;;;;;17.28;76.24;101254.38;5045575;28;20554;-67
2022/07/26 02:28:07;;;;;;;14.80;3.60;;;;;;;17.28;76.62;101248.88;5026452;28;20057;-66
2022/07/26 02:30:32;;;;;;;14.55;3.40;;;;;;;17.26;76.73;101253.69;5025271;28;20033;-66
2022/07/26 02:32:58;;;;;;;7.95;3.28;;;;;;;17.27;76.38;101260.91;5024100;28;20036;-67
2022/07/26 02:35:23;;;;;;;12.63;3.60;;;;;;;17.25;76.60;101262.91;5025217;28;20041;-68
2022/07/26 02:37:48;;;;;;;18.48;3.60;;;;;;;17.24;77.31;101261.19;5023846;28;20061;-65
2022/07/26 02:40:14;;;;;;;11.80;3.22;;;;;;;17.19;77.73;101260.75;5024277;28;20124;-66
2022/07/26 02:42:39;;;;;;;8.48;3.20;;;;;;;17.17;77.18;101255.41;5039253;28;20036;-65
2022/07/26 02:45:05;;;;;;;12.05;3.65;;;;;;;17.19;76.73;101271.75;5037598;28;20055;-65
2022/07/26 02:47:31;;;;;;;13.60;4.13;;;;;;;17.17;76.99;101269.16;5025054;28;20045;-65
2022/07/26 02:49:57;;;;;;;12.50;3.75;;;;;;;17.17;77.03;101271.03;5024504;28;20033;-65
2022/07/26 02:52:22;;;;;;;13.63;3.25;;;;;;;17.15;77.29;101273.03;5025618;28;20057;-66
2022/07/26 02:54:48;;;;;;;16.38;3.80;;;;;;;17.12;77.45;101271.47;5025653;28;20171;-66
2022/07/26 02:57:13;;;;;;;11.38;3.47;;;;;;;17.13;77.36;101275.09;5023944;28;20041;-66
2022/07/26 02:59:39;;;;;;;13.48;4.15;;;;;;;17.13;77.06;101275.09;5024594;28;20131;-65
2022/07/26 03:02:04;;;;;;;9.90;3.05;;;;;;;17.12;77.41;101276.09;5025017;28;20108;-65
2022/07/26 03:04:29;;;;;;;15.15;4.18;;;;;;;17.11;77.67;101282.59;5024578;28;20129;-64
2022/07/26 03:06:55;;;;;;;10.93;3.80;;;;;;;17.12;77.40;101278.84;5024806;28;20370;-67
2022/07/26 03:09:20;;;;;;;10.07;3.50;;;;;;;17.12;78.06;101282.47;5025851;28;20054;-66
2022/07/26 03:11:45;;;;;;;10.85;3.72;;;;;;;17.09;76.79;101277.25;5032798;28;20048;-66
2022/07/26 03:14:11;;;;;;;10.95;3.80;;;;;;;17.09;77.97;101289.09;5044102;28;20033;-67
2022/07/26 03:16:36;;;;;;;11.68;3.67;;;;;;;17.08;77.52;101283.75;5037358;28;20136;-65
2022/07/26 03:19:02;;;;;;;13.68;4.10;;;;;;;17.06;77.94;101294.00;5044079;28;20044;-66
2022/07/26 03:21:27;;;;;;;14.50;4.07;;;;;;;17.05;77.60;101292.28;5038470;28;20028;-65
2022/07/26 03:23:53;;;;;;;15.27;4.75;;;;;;;17.02;79.29;101295.31;5051994;28;20052;-65
2022/07/26 03:26:19;;;;;;;15.23;4.00;;;;;;;17.03;78.28;101292.44;5033681;28;20033;-65
2022/07/26 03:28:44;;;;;;;14.93;3.95;;;;;;;17.05;78.74;101301.41;5044591;28;20563;-66
2022/07/26 03:31:11;;;;;;;12.77;3.88;;;;;;;17.05;78.99;101300.53;5041196;28;20160;-67
2022/07/26 03:33:37;;;;;;;12.88;3.30;;;;;;;17.05;78.78;101306.91;5043129;28;20044;-67
2022/07/26 03:36:03;;;;;;;15.50;4.00;;;;;;;17.07;78.60;101301.28;5040452;28;20226;-66
2022/07/26 03:38:29;;;;;;;14.25;4.45;;;;;;;17.05;79.67;101311.53;5044737;28;20386;-66
2022/07/26 03:40:54;;;;;;;15.77;4.50;;;;;;;17.03;79.00;101314.44;5042497;28;20120;-67
2022/07/26 03:43:19;;;;;;;13.88;3.80;;;;;;;17.03;78.54;101319.06;5041889;28;20416;-66
2022/07/26 03:45:45;;;;;;;14.25;4.40;;;;;;;17.00;79.18;101319.34;5040939;28;20428;-66
2022/07/26 03:48:10;;;;;;;15.68;4.00;;;;;;;16.97;79.02;101317.75;5043286;28;20056;-65
2022/07/26 03:50:36;;;;;;;13.82;4.63;;;;;;;16.93;80.12;101313.53;5039921;28;20115;-67
2022/07/26 03:53:02;;;;;;;12.48;4.13;;;;;;;16.95;78.78;101307.91;5044399;28;20017;-66
2022/07/26 03:58:11;;;;;;;15.90;4.38;;;;;;;16.94;79.67;101320.78;5041346;28;20106;-67
2022/07/26 04:00:37;;;;;;;14.35;4.13;;;;;;;16.97;78.61;101317.75;5040415;28;20064;-67
2022/07/26 04:03:02;;;;;;;10.93;3.72;;;;;;;16.97;78.98;101317.75;5042895;28;20040;-65
2022/07/26 04:05:27;;;;;;;19.10;3.88;;;;;;;17.00;79.86;101333.06;5039052;28;20087;-65
2022/07/26 04:07:53;;;;;;;13.35;4.13;;;;;;;16.94;81.05;101326.28;5042188;28;20028;-66
2022/07/26 04:10:18;;;;;;;14.80;4.10;;;;;;;16.95;80.44;101325.25;5047600;28;20115;-66
2022/07/26 04:12:44;;;;;;;15.23;4.55;;;;;;;16.99;80.20;101325.84;5038272;28;20443;-65
2022/07/26 04:15:09;;;;;;;18.17;4.55;;;;;;;17.00;79.48;101320.19;5042182;28;20056;-65
2022/07/26 04:17:36;;;;;;;14.05;4.05;;;;;;;17.03;80.27;101327.31;5027745;28;20099;-66
2022/07/26 04:20:02;;;;;;;12.15;3.88;;;;;;;17.04;79.68;101324.41;5027102;28;20033;-66
2022/07/26 04:22:27;;;;;;;9.75;4.00;;;;;;;17.05;80.07;101317.03;5027920;28;20040;-66
2022/07/26 04:24:53;;;;;;;11.98;4.15;;;;;;;17.08;80.23;101328.63;5028061;28;20108;-65
2022/07/26 04:27:18;;;;;;;19.50;4.43;;;;;;;17.09;79.79;101332.22;5027677;28;20108;-65
2022/07/26 04:29:43;;;;;;;18.08;5.10;;;;;;;17.10;80.35;101333.97;5025944;28;20076;-64
2022/07/26 04:32:09;;;;;;;15.32;4.63;;;;;;;17.12;79.12;101331.97;5027433;28;20095;-66
2022/07/26 04:34:34;;;;;;;14.75;4.47;;;;;;;17.14;79.65;101338.16;5046711;28;20107;-69
2022/07/26 04:36:59;;;;;;;16.88;4.97;;;;;;;17.14;80.31;101338.16;5026601;28;20061;-67
2022/07/26 04:39:25;;;;;;;14.25;4.28;;;;;;;17.16;79.15;101333.41;5028051;28;20067;-68
2022/07/26 04:41:50;;;;;;;12.68;4.43;;;;;;;17.18;79.79;101347.00;5029295;28;20065;-67
2022/07/26 04:44:15;;;;;;;13.00;4.05;;;;;;;17.19;79.48;101344.13;5047543;28;20033;-66
2022/07/26 04:46:41;;;;;;;8.93;4.15;;;;;;;17.23;79.65;101339.22;5028696;28;20029;-67
2022/07/26 04:49:06;;;;;;;16.17;4.88;;;;;;;17.25;80.06;101345.41;5027460;28;20037;-65
2022/07/26 04:51:31;;;;;;;16.65;4.18;;;;;;;17.27;79.43;101335.16;5026528;28;20080;-65
2022/07/26 04:53:57;;;;;;;15.82;4.15;;;;;;;17.25;79.57;101339.91;5027677;28;20512;-65
2022/07/26 04:56:22;;;;;;;14.15;4.55;;;;;;;17.24;79.04;101343.69;5034049;28;20476;-64
2022/07/26 04:58:48;;;;;;;15.00;4.70;;;;;;;17.25;78.58;101346.31;5027480;28;20051;-66
2022/07/26 05:01:13;;;;;;;18.02;4.78;;;;;;;17.24;79.18;101351.94;5026345;28;20037;-65
2022/07/26 05:03:39;;;;;;;19.60;4.35;;;;;;;17.22;79.22;101357.59;5027457;28;20040;-65
2022/07/26 05:06:05;;;;;;;12.95;4.00;;;;;;;17.25;79.06;101359.16;5026085;28;20040;-65
2022/07/26 05:08:30;;;;;;;13.98;4.40;;;;;;;17.21;79.47;101355.00;5027249;28;20084;-66
2022/07/26 05:10:55;;;;;;;18.50;5.15;;;;;;;17.19;80.31;101362.50;5037557;28;20533;-66
2022/07/26 05:13:21;;;;;;;12.07;4.15;;;;;;;17.16;79.49;101357.25;5041052;28;20492;-65
2022/07/26 05:15:46;;;;;;;13.13;5.25;;;;;;;17.16;79.57;101365.50;5035500;28;20434;-69
2022/07/26 05:18:11;;;;;;;9.38;4.40;;;;;;;17.15;80.02;101370.16;5027231;28;20037;-64
2022/07/26 05:20:37;;;;;;;12.85;4.53;;;;;;;17.18;79.40;101371.75;5024835;28;20117;-64
2022/07/26 05:23:03;;;;;;;13.18;4.10;;;;;;;17.21;79.64;101371.50;5027234;28;20120;-66
2022/07/26 05:25:29;;;;;;;11.07;4.65;;;;;;;17.20;79.44;101367.84;5030054;28;20454;-65
2022/07/26 05:27:54;;;;;;;18.75;5.03;;;;;;;17.24;80.18;101377.56;5045254;28;20044;-67
2022/07/26 05:30:20;;;;;;;15.63;5.60;;;;;;;17.23;80.47;101374.94;5043096;28;20094;-65
2022/07/26 05:32:45;;;;;;;11.98;5.13;;;;;;;17.23;80.46;101370.31;5041496;28;20036;-65
2022/07/26 05:35:11;;;;;;;13.00;4.25;;;;;;;17.31;78.88;101383.38;5042167;28;20037;-65
2022/07/26 05:37:36;;;;;;;17.33;4.63;;;;;;;17.33;80.53;101375.84;5043746;28;20060;-67
2022/07/26 05:40:06;;;;;;;13.55;4.45;;;;;;;17.38;79.17;101380.91;5045422;28;20549;-66
2022/07/26 05:42:31;;;;;;;15.07;5.13;;;;;;;17.41;79.15;101373.25;5042343;28;20427;-65
2022/07/26 05:44:56;;;;;;;12.85;5.13;;;;;;;17.46;79.48;101387.44;5042451;28;20101;-68
2022/07/26 05:47:22;;;;;;;11.75;4.38;;;;;;;17.46;79.38;101381.94;5043199;28;20566;-66
2022/07/26 05:49:47;;;;;;;14.05;4.68;;;;;;;17.49;77.89;101391.81;5043530;28;20071;-65
2022/07/26 05:52:13;;;;;;;13.75;5.03;;;;;;;17.48;79.70;101392.78;5024627;28;20174;-65
2022/07/26 05:54:38;;;;;;;17.70;5.20;;;;;;;17.52;79.53;101394.25;5026466;28;20060;-66
2022/07/26 05:57:04;;;;;;;13.48;5.15;;;;;;;17.56;79.72;101399.31;5032911;28;20385;-66
2022/07/26 05:59:30;;;;;;;13.82;5.30;;;;;;;17.67;79.46;101395.56;5044844;28;20025;-66
2022/07/26 06:01:55;;;;;;;15.35;5.25;;;;;;;17.75;79.51;101397.63;5035431;28;20637;-68
2022/07/26 06:04:22;;;;;;;14.70;5.43;;;;;;;17.74;78.37;101391.28;5042845;28;20116;-66
2022/07/26 06:06:47;;;;;;;13.07;4.78;;;;;;;17.76;77.62;101396.63;5042374;28;20372;-66
2022/07/26 06:09:12;;;;;;;15.90;5.80;;;;;;;17.75;78.73;101401.25;5044057;28;20028;-66
2022/07/26 06:11:38;;;;;;;13.52;5.28;;;;;;;17.75;78.32;101405.91;5041996;28;20035;-65
2022/07/26 06:14:03;;;;;;;11.57;4.88;;;;;;;17.74;78.47;101402.28;5032104;28;20040;-66
2022/07/26 06:16:28;;;;;;;13.52;5.10;;;;;;;17.79;78.55;101407.34;5025489;28;20033;-66
2022/07/26 06:18:54;;;;;;;12.00;5.38;;;;;;;17.81;77.80;101403.47;5026678;28;20046;-65
2022/07/26 06:21:19;;;;;;;14.75;5.30;;;;;;;17.82;78.65;101401.56;5036435;28;20028;-65
2022/07/26 06:23:45;;;;;;;13.45;5.38;;;;;;;17.84;78.56;101408.66;5045149;28;20045;-67
2022/07/26 06:26:11;;;;;;;11.88;5.30;;;;;;;17.89;78.75;101405.47;5043722;28;20024;-68
2022/07/26 06:28:38;;;;;;;15.95;5.85;;;;;;;17.93;78.22;101409.66;5026158;28;20045;-67
2022/07/26 06:31:03;;;;;;;9.70;4.93;;;;;;;17.95;77.14;101412.25;5034481;28;20111;-65
2022/07/26 06:33:29;;;;;;;11.43;5.45;;;;;;;17.96;78.42;101412.16;5043275;28;20068;-66
2022/07/26 06:35:54;;;;;;;14.15;5.32;;;;;;;17.96;77.06;101417.66;5041418;28;20790;-67
2022/07/26 06:38:20;;;;;;;11.20;6.00;;;;;;;17.97;77.48;101415.75;5043859;28;20049;-66
2022/07/26 06:40:45;;;;;;;17.20;5.00;;;;;;;18.01;76.32;101422.72;5043685;28;20052;-67
2022/07/26 06:43:10;;;;;;;11.93;5.07;;;;;;;18.05;77.04;101416.78;5039918;28;20031;-66
2022/07/26 06:45:36;;;;;;;16.20;5.53;;;;;;;18.10;76.72;101421.84;5041531;28;20029;-68
2022/07/26 06:48:01;;;;;;;8.95;5.38;;;;;;;18.14;76.22;101416.91;5041091;28;20028;-66
2022/07/26 06:50:27;;;;;;;13.27;5.05;;;;;;;18.20;74.83;101428.22;5040196;28;20550;-65
2022/07/26 06:52:52;;;;;;;11.45;5.30;;;;;;;18.28;75.29;101433.88;5044464;28;20048;-67
2022/07/26 06:55:17;;;;;;;11.52;5.25;;;;;;;18.37;74.52;101440.34;5044076;28;20040;-65
2022/07/26 06:57:43;;;;;;;8.90;4.93;;;;;;;18.60;75.68;101438.13;5038802;28;20045;-65
2022/07/26 07:00:09;;;;;;;12.38;4.95;;;;;;;18.82;75.22;101431.44;5042793;28;20095;-67
2022/07/26 07:02:35;;;;;;;9.13;4.90;;;;;;;18.98;74.85;101442.72;5042276;28;20032;-65
2022/07/26 07:05:00;;;;;;;6.65;3.58;;;;;;;19.11;73.41;101440.44;5041328;28;20048;-65
2022/07/26 07:07:26;;;;;;;9.45;4.05;;;;;;;19.16;72.25;101436.38;5034102;28;20044;-65
2022/07/26 07:09:52;;;;;;;10.45;4.30;;;;;;;19.17;72.44;101440.88;5044921;28;20122;-65
2022/07/26 07:12:17;;;;;;;12.98;3.92;;;;;;;19.22;72.03;101452.34;5041678;28;20407;-66
2022/07/26 07:14:43;;;;;;;11.50;4.15;;;;;;;19.26;71.69;101451.00;5043241;28;20040;-64
2022/07/26 07:17:09;;;;;;;8.85;3.65;;;;;;;19.27;70.61;101455.50;5026329;28;20131;-66
2022/07/26 07:19:35;;;;;;;11.60;2.95;;;;;;;19.27;70.64;101452.75;5044030;28;20056;-66
2022/07/26 07:22:02;;;;;;;8.68;2.67;;;;;;;19.33;70.75;101452.13;5026837;28;20072;-65
2022/07/26 07:24:28;;;;;;;10.82;3.00;;;;;;;19.38;71.29;101452.53;5043963;28;20579;-66
2022/07/26 07:26:53;;;;;;;6.07;2.50;;;;;;;19.49;70.07;101454.19;5039363;28;20045;-65
2022/07/26 07:29:19;;;;;;;7.28;2.35;;;;;;;19.64;68.72;101454.59;5041238;28;20764;-67
2022/07/26 07:31:46;;;;;;;12.00;3.00;;;;;;;19.81;67.60;101454.59;5032969;28;20434;-66
2022/07/26 07:34:12;;;;;;;9.15;2.28;;;;;;;20.05;67.97;101455.88;5041218;28;20024;-67
2022/07/26 07:36:38;;;;;;;8.25;2.78;;;;;;;20.33;67.99;101460.31;5027071;28;20053;-65
2022/07/26 07:39:03;;;;;;;5.70;2.38;;;;;;;20.41;65.89;101459.47;5024991;28;20544;-66
2022/07/26 07:41:28;;;;;;;10.07;2.58;;;;;;;20.38;66.99;101468.13;5024722;28;20450;-65
2022/07/26 07:43:54;;;;;;;6.72;2.38;;;;;;;20.36;65.62;101459.97;5044705;28;20052;-67
2022/07/26 07:46:19;;;;;;;7.72;3.25;;;;;;;20.38;65.99;101465.34;5037967;28;20354;-66
2022/07/26 07:48:44;;;;;;;5.68;2.22;;;;;;;20.42;66.55;101466.75;5028778;28;20144;-65
2022/07/26 07:51:10;;;;;;;7.60;2.60;;;;;;;20.45;66.58;101468.31;5036991;28;20025;-67
2022/07/26 07:53:35;;;;;;;10.63;2.78;;;;;;;20.27;65.32;101471.97;5048814;28;20119;-65
2022/07/26 07:56:01;;;;;;;4.05;2.38;;;;;;;20.29;66.64;101471.84;5047513;28;20082;-65
2022/07/26 07:58:27;;;;;;;7.25;2.75;;;;;;;20.44;66.34;101473.00;5040985;28;20035;-67
2022/07/26 08:00:52;;;;;;;9.25;3.00;;;;;;;20.77;66.70;101462.22;5043797;28;20055;-65
2022/07/26 08:03:18;;;;;;;5.10;2.63;;;;;;;21.05;63.22;101460.13;5045244;28;20033;-64
2022/07/26 08:05:44;;;;;;;6.15;3.33;;;;;;;20.92;64.29;101468.88;5038626;28;20029;-65
2022/07/26 08:08:09;;;;;;;4.88;2.42;;;;;;;20.65;65.43;101483.72;5028115;28;20045;-65
2022/07/26 08:10:35;;;;;;;4.65;1.77;;;;;;;20.32;66.38;101488.06;5034308;28;20067;-65
2022/07/26 08:13:00;;;;;;;5.05;1.70;;;;;;;20.06;67.70;101488.03;5045443;28;20037;-69
2022/07/26 08:15:26;;;;;;;2.25;1.48;;;;;;;20.03;68.54;101500.22;5036133;28;20049;-66
2022/07/26 08:17:52;;;;;;;2.85;1.13;;;;;;;20.05;68.78;101489.91;5041571;28;20061;-65
2022/07/26 08:20:18;;;;;;;3.28;1.20;;;;;;;19.91;69.00;101495.09;5039120;28;20528;-69
2022/07/26 08:22:44;;;;;;;4.55;1.10;;;;;;;19.94;69.78;101497.53;5043743;28;20064;-66
2022/07/26 08:25:09;;;;;;;3.25;1.10;;;;;;;19.97;70.87;101502.78;5032216;28;20140;-67
2022/07/26 08:27:35;;;;;;;2.20;1.00;;;;;;;20.09;69.85;101507.88;5039004;28;20057;-66
2022/07/26 08:30:00;;;;;;;1.63;0.80;;;;;;;20.31;69.39;101508.47;5029576;28;20116;-66
2022/07/26 08:32:26;;;;;;;1.23;0.77;;;;;;;20.57;69.66;101506.66;5036440;28;20059;-70
2022/07/26 08:34:51;;;;;;;3.08;0.50;;;;;;;20.64;66.97;101506.88;5045876;28;20016;-69
2022/07/26 08:37:16;;;;;;;2.08;0.60;;;;;;;20.85;66.92;101514.81;5026495;28;20041;-66
2022/07/26 08:39:42;;;;;;;1.40;0.57;;;;;;;21.34;66.43;101517.91;5029480;28;20038;-66
2022/07/26 08:42:15;;;;;;;2.33;0.50;;;;;;;21.70;65.02;101523.28;5027295;28;20120;-67
2022/07/26 08:44:44;;;;;;;0.68;0.63;;;;;;;21.88;62.41;101524.91;5038117;28;20040;-66
2022/07/26 08:47:14;;;;;;;1.40;0.57;;;;;;;22.28;63.14;101522.41;5035920;28;20130;-66
2022/07/26 08:49:41;;;;;;;0.70;0.50;;;;;;;22.29;62.41;101525.03;5054025;28;20037;-65
2022/07/26 08:52:08;;;;;;;5.68;0.80;;;;;;;21.76;61.63;101529.00;5044921;28;20044;-66
2022/07/26 08:54:34;;;;;;;3.35;0.80;;;;;;;21.40;64.74;101525.56;5046837;28;20083;-66
2022/07/26 08:56:59;;;;;;;1.40;1.10;;;;;;;21.94;65.22;101519.72;5038162;28;20450;-68
2022/07/26 08:59:25;;;;;;;1.63;0.93;;;;;;;22.32;61.28;101530.22;5027467;28;20045;-68
2022/07/26 09:02:06;;;;;;;2.67;1.10;;;;;;;22.55;62.30;101543.41;5027011;28;20040;-65
2022/07/26 09:04:36;;;;;;;1.67;0.90;;;;;;;22.46;59.69;101544.44;5026608;28;20041;-67
2022/07/26 09:07:08;;;;;;;3.83;1.10;;;;;;;21.88;60.46;101527.66;5043336;28;20037;-66
2022/07/26 09:09:54;;;;;;;2.70;1.00;;;;;;;21.66;62.73;101539.34;5047208;28;20504;-66
2022/07/26 09:12:20;;;;;;;1.35;0.80;;;;;;;21.76;62.61;101547.53;5041476;28;20102;-67
2022/07/26 09:14:46;;;;;;;1.85;1.08;;;;;;;21.79;63.53;101544.44;5036524;28;20480;-66
2022/07/26 09:17:13;;;;;;;1.55;0.90;;;;;;;21.91;61.76;101535.63;5026709;28;20033;-67
2022/07/26 09:19:38;;;;;;;2.08;1.05;;;;;;;21.69;60.51;101552.88;5041867;28;20728;-67
2022/07/26 09:22:10;;;;;;;4.25;1.20;;;;;;;21.54;62.22;101548.97;5038620;28;20108;-66
2022/07/26 09:24:39;;;;;;;;;;;;;;;21.71;63.02;101558.25;5046474;28;20052;-65
2022/07/26 09:27:06;;;;;;;1.92;1.40;;;;;;;21.84;61.45;101556.75;5038853;28;19921;-68
2022/07/26 09:29:51;;;;;;;2.97;1.52;;;;;;;22.17;62.69;101556.00;5044992;28;20122;-67
2022/07/26 09:32:22;;;;;;;3.28;1.67;;;;;;;22.05;59.02;101561.81;5041601;28;20111;-67
2022/07/26 09:34:57;;;;;;;6.97;1.65;;;;;;;21.75;59.36;101557.75;5042059;28;20141;-68
2022/07/26 09:37:33;;;;;;;3.97;1.20;;;;;;;21.37;60.77;101562.75;5043961;28;20049;-67
2022/07/26 09:40:00;;;;;;;4.07;1.40;;;;;;;21.03;62.44;101570.97;5046728;28;20037;-66
2022/07/26 09:42:26;;;;;;;3.72;1.00;;;;;;;21.47;64.04;101570.94;5041121;28;20134;-66
2022/07/26 09:44:57;;;;;;;7.50;1.50;;;;;;;21.57;60.72;101560.59;5044868;28;20045;-66
2022/07/26 09:47:34;;;;;;;3.97;1.30;;;;;;;21.67;62.24;101565.16;5026748;28;20056;-67
2022/07/26 09:50:16;;;;;;;3.70;1.40;;;;;;;21.90;62.14;101575.47;5040471;28;20037;-67
2022/07/26 09:52:57;;;;;;;5.95;1.25;;;;;;;21.74;62.16;101583.72;5025660;28;20037;-66
2022/07/26 09:55:22;;;;;;;5.30;1.20;;;;;;;21.96;62.49;101582.22;5026920;28;20107;-66
2022/07/26 09:57:50;;;;;;;3.35;1.38;;;;;;;22.18;62.26;101580.78;5025576;28;20021;-67
2022/07/26 10:00:16;;;;;;;1.58;0.80;;;;;;;22.55;58.47;101587.78;5033207;28;20041;-68
2022/07/26 10:02:41;;;;;;;2.13;0.80;;;;;;;22.77;56.56;101589.03;5026001;28;20524;-67
2022/07/26 10:05:07;;;;;;;3.00;0.68;;;;;;;23.09;55.82;101580.72;5020712;28;20037;-67
2022/07/26 10:07:33;;;;;;;1.70;0.63;;;;;;;23.19;56.10;101588.88;5036051;28;20059;-67
2022/07/26 10:10:25;;;;;;;1.17;0.60;;;;;;;22.79;55.43;101581.38;5045966;28;20455;-65
2022/07/26 10:12:51;;;;;;;4.05;0.75;;;;;;;22.70;57.84;101585.19;5028053;28;20046;-66
2022/07/26 10:15:35;;;;;;;2.20;0.63;;;;;;;22.72;56.95;101591.47;5024969;28;20540;-67
2022/07/26 10:18:01;;;;;;;5.18;0.73;;;;;;;22.70;56.49;101596.28;5025502;28;20370;-67
2022/07/26 10:20:42;;;;;;;1.88;0.73;;;;;;;22.73;56.71;101591.28;5025176;28;20056;-66
2022/07/26 10:23:36;;;;;;;2.08;0.70;;;;;;;23.16;57.18;101601.19;5044943;28;20111;-67
2022/07/26 10:26:04;;;;;;;3.28;0.57;;;;;;;23.21;55.99;101597.88;5045587;28;20040;-67
2022/07/26 10:28:32;;;;;;;1.77;0.50;;;;;;;23.23;54.55;101604.13;5026036;28;20033;-66
2022/07/26 10:31:19;;;;;;;4.20;0.82;;;;;;;22.95;54.84;101606.41;5034138;28;20392;-67
2022/07/26 10:33:50;;;;;;;1.05;0.52;;;;;;;22.85;54.80;101606.56;5025986;28;20636;-66
2022/07/26 10:36:25;;;;;;;0.77;0.50;;;;;;;22.99;55.91;101610.56;5023881;28;20124;-68
2022/07/26 10:39:14;;;;;;;0.70;0.40;;;;;;;23.07;54.87;101598.59;5026443;28;20041;-68
2022/07/26 10:41:46;;;;;;;0.65;0.50;;;;;;;23.26;53.76;101611.22;5025443;28;20443;-67
2022/07/26 10:44:12;;;;;;;3.05;0.45;;;;;;;23.65;53.91;101609.47;5025729;28;20092;-67
2022/07/26 10:47:13;;;;;;;1.98;0.60;;;;;;;23.67;54.92;101607.34;5023649;28;20466;-66
2022/07/26 10:49:58;;;;;;;1.58;0.70;;;;;;;23.53;52.11;101619.16;5002790;28;20060;-66
2022/07/26 10:52:29;;;;;;;3.25;0.70;;;;;;;23.27;53.27;101619.41;5025807;28;20445;-66
2022/07/26 10:55:03;;;;;;;2.15;0.80;;;;;;;23.33;54.14;101628.94;5026365;28;20037;-67
2022/07/26 10:57:31;;;;;;;0.98;0.50;;;;;;;23.22;53.48;101619.03;5025023;28;20056;-67
2022/07/26 10:59:58;;;;;;;2.00;0.60;;;;;;;23.22;54.42;101623.72;5025283;28;20125;-66
2022/07/26 11:02:27;;;;;;;0.77;0.68;;;;;;;23.22;55.23;101623.72;5025778;28;20021;-65
2022/07/26 11:05:27;;;;;;;1.17;0.75;;;;;;;23.11;56.21;101642.47;5024887;28;20043;-67
2022/07/26 11:07:57;;;;;;;2.53;0.60;;;;;;;23.23;56.19;101637.47;5018364;28;20096;-65
2022/07/26 11:10:31;;;;;;;1.70;0.85;;;;;;;23.41;56.02;101642.81;5025902;28;20048;-65
2022/07/26 11:13:05;;;;;;;2.95;1.00;;;;;;;23.14;55.63;101639.38;5035491;28;20037;-67
2022/07/26 11:15:31;;;;;;;4.35;1.17;;;;;;;22.92;58.85;101652.00;5033395;28;20037;-67
2022/07/26 11:18:13;;;;;;;4.10;1.10;;;;;;;22.67;58.48;101650.22;5041961;28;20087;-67
2022/07/26 11:20:41;;;;;;;3.97;1.33;;;;;;;22.34;60.90;101665.91;5039654;28;20053;-66
2022/07/26 11:23:23;;;;;;;2.30;1.20;;;;;;;22.27;61.37;101657.38;5037991;28;20025;-67
2022/07/26 11:25:59;;;;;;;4.95;1.40;;;;;;;22.03;61.71;101663.66;5047950;28;20512;-67